Time;durP1;ratioP1;P1;durP2;ratioP2;P2;SDS_P1;SDS_P2;PMS_P1;PMS_P2;Temp;Humidity;BMP_temperature;BMP_pressure;BME280_temperature;BME280_humidity;BME280_pressure;Samples;Min_cycle;Max_cycle;Signal;HPM_P1;HPM_P2
2021/10/23 00:01:22;;;;;;;1.53;1.43;;;;;;;21.10;63.50;98153.44;5026484;28;20695;-67
2021/10/23 00:03:49;;;;;;;1.63;1.30;;;;;;;20.93;63.54;98122.06;5024836;28;20599;-67
2021/10/23 00:06:16;;;;;;;1.77;1.30;;;;;;;21.23;63.63;98173.63;5025540;28;20232;-68
2021/10/23 00:08:42;;;;;;;1.47;1.30;;;;;;;21.15;63.50;98162.19;5025945;28;20679;-68
2021/10/23 00:11:09;;;;;;;1.47;1.30;;;;;;;20.91;63.87;98118.59;5025511;28;20228;-67
2021/10/23 00:13:35;;;;;;;1.40;1.30;;;;;;;20.80;63.71;98101.94;5026591;28;20760;-67
2021/10/23 00:16:02;;;;;;;1.50;1.40;;;;;;;20.89;63.83;98119.31;5026356;28;20275;-67
2021/10/23 00:18:29;;;;;;;2.20;1.40;;;;;;;21.04;63.73;98148.97;5026267;28;20225;-67
2021/10/23 00:20:56;;;;;;;1.43;1.33;;;;;;;21.26;63.74;98191.63;5024156;28;20229;-67
2021/10/23 00:23:23;;;;;;;1.50;1.40;;;;;;;21.24;63.66;98195.81;5026391;28;20682;-68
2021/10/23 00:25:52;;;;;;;1.50;1.40;;;;;;;21.16;63.73;98187.81;5025611;28;20729;-67
2021/10/23 00:28:19;;;;;;;1.73;1.40;;;;;;;20.90;64.02;98144.94;5008445;28;20336;-67
2021/10/23 00:30:45;;;;;;;1.47;1.20;;;;;;;21.17;63.79;98186.16;5023634;28;20319;-65
2021/10/23 00:33:12;;;;;;;1.40;1.30;;;;;;;20.74;63.72;98111.03;5017674;28;20288;-68
2021/10/23 00:35:38;;;;;;;1.87;1.60;;;;;;;21.08;63.29;98173.00;5025962;28;20271;-67
2021/10/23 00:38:05;;;;;;;1.63;1.40;;;;;;;21.16;63.70;98192.94;5025674;28;20316;-67
2021/10/23 00:40:32;;;;;;;1.27;1.17;;;;;;;21.23;63.94;98200.03;5028758;28;20679;-67
2021/10/23 00:42:59;;;;;;;1.60;1.50;;;;;;;21.23;63.51;98206.84;5024939;28;20236;-67
2021/10/23 00:45:26;;;;;;;1.47;1.37;;;;;;;21.22;63.89;98205.97;5026253;28;20647;-67
2021/10/23 00:47:53;;;;;;;1.40;1.30;;;;;;;21.15;63.98;98196.31;5027963;28;20224;-67
2021/10/23 00:50:20;;;;;;;1.43;1.33;;;;;;;21.24;63.96;98206.03;5038009;28;20371;-67
2021/10/23 00:52:47;;;;;;;1.67;1.40;;;;;;;21.21;63.91;98205.91;5029639;28;20292;-68
2021/10/23 00:55:14;;;;;;;1.40;1.30;;;;;;;21.12;63.61;98193.63;5028019;28;20258;-68
2021/10/23 00:57:40;;;;;;;1.50;1.40;;;;;;;21.16;63.79;98200.59;5029350;28;20225;-66
2021/10/23 01:00:08;;;;;;;1.20;1.10;;;;;;;21.24;63.95;98219.69;5025707;28;20201;-67
2021/10/23 01:02:35;;;;;;;1.37;1.27;;;;;;;21.10;64.00;98215.69;5027710;28;20296;-67
2021/10/23 01:05:03;;;;;;;1.73;1.40;;;;;;;20.95;63.80;98175.81;4997197;28;20206;-68
2021/10/23 01:07:30;;;;;;;1.40;1.30;;;;;;;20.82;63.82;98148.88;5028892;28;20348;-67
2021/10/23 01:09:57;;;;;;;1.20;1.20;;;;;;;21.23;63.35;98220.47;5027431;28;20229;-67
2021/10/23 01:12:23;;;;;;;1.50;1.40;;;;;;;20.98;63.82;98176.84;5027715;28;20241;-68
2021/10/23 01:14:50;;;;;;;1.37;1.27;;;;;;;21.25;63.75;98221.44;5025681;28;20236;-68
2021/10/23 01:17:21;;;;;;;1.40;1.30;;;;;;;20.52;63.80;98098.19;5027705;28;20222;-67
2021/10/23 01:19:51;;;;;;;1.33;1.23;;;;;;;21.25;63.88;98220.53;5026773;28;20228;-66
2021/10/23 01:22:27;;;;;;;1.50;1.40;;;;;;;21.17;63.77;98206.59;5029316;28;20247;-68
2021/10/23 01:24:55;;;;;;;1.40;1.30;;;;;;;21.13;63.79;98189.34;5027677;28;20233;-66
2021/10/23 01:27:21;;;;;;;1.50;1.40;;;;;;;21.23;63.89;98206.84;5024653;28;20214;-67
2021/10/23 01:29:48;;;;;;;1.40;1.30;;;;;;;21.15;64.06;98193.75;5027432;28;20206;-66
2021/10/23 01:32:14;;;;;;;1.40;1.30;;;;;;;21.10;64.36;98192.69;5033861;28;20313;-68
2021/10/23 01:34:41;;;;;;;1.50;1.40;;;;;;;21.23;63.73;98214.50;5028706;28;20253;-67
2021/10/23 01:37:07;;;;;;;1.20;1.10;;;;;;;20.48;64.14;98079.28;5024697;28;20364;-67
2021/10/23 01:39:34;;;;;;;1.93;1.37;;;;;;;21.19;63.75;98213.50;5028984;28;20237;-67
2021/10/23 01:42:01;;;;;;;1.40;1.30;;;;;;;21.15;64.02;98206.53;5028189;28;20326;-67
2021/10/23 01:44:30;;;;;;;1.27;1.17;;;;;;;21.22;63.94;98221.28;5028612;28;20237;-64
2021/10/23 01:46:56;;;;;;;1.30;1.20;;;;;;;21.23;63.71;98220.47;5027716;28;20233;-67
2021/10/23 01:49:23;;;;;;;1.00;1.00;;;;;;;21.13;63.87;98205.59;5028839;28;20352;-67
2021/10/23 01:51:50;;;;;;;1.30;1.20;;;;;;;20.98;63.99;98179.38;5027923;28;20276;-67
2021/10/23 01:54:16;;;;;;;1.50;1.23;;;;;;;21.24;63.79;98224.81;5028612;28;20240;-67
2021/10/23 01:56:43;;;;;;;1.57;1.47;;;;;;;21.24;64.01;98227.38;5027916;28;20231;-68
2021/10/23 01:59:10;;;;;;;1.30;1.20;;;;;;;20.91;63.83;98168.81;5027939;28;20580;-68
2021/10/23 02:01:36;;;;;;;1.33;1.27;;;;;;;20.57;64.45;98120.53;5028319;28;20304;-68
2021/10/23 02:04:03;;;;;;;1.50;1.20;;;;;;;21.24;64.03;98229.03;5028248;28;20209;-67
2021/10/23 02:06:30;;;;;;;1.33;1.23;;;;;;;21.23;63.85;98228.16;5026624;28;20703;-67
2021/10/23 02:08:56;;;;;;;1.50;1.40;;;;;;;21.11;64.00;98207.19;5027966;28;20229;-67
2021/10/23 02:11:23;;;;;;;1.30;1.20;;;;;;;20.95;63.89;98183.50;5028174;28;20364;-67
2021/10/23 02:13:50;;;;;;;1.20;1.10;;;;;;;20.40;63.84;98106.16;5028201;28;20209;-68
2021/10/23 02:16:16;;;;;;;1.40;1.30;;;;;;;21.23;63.83;98234.97;5028296;28;20237;-67
2021/10/23 02:18:43;;;;;;;1.40;1.30;;;;;;;21.12;63.93;98226.84;5027378;28;20240;-67
2021/10/23 02:21:11;;;;;;;1.40;1.30;;;;;;;21.02;64.13;98200.84;5026148;28;20749;-67
2021/10/23 02:23:38;;;;;;;1.40;1.30;;;;;;;20.84;64.00;98174.50;5028221;28;20588;-68
2021/10/23 02:26:04;;;;;;;1.30;1.20;;;;;;;21.23;64.06;98238.38;5026970;28;20206;-68
2021/10/23 02:28:31;;;;;;;1.20;1.10;;;;;;;20.97;64.34;98197.22;5028322;28;20244;-67
2021/10/23 02:30:58;;;;;;;1.40;1.30;;;;;;;21.22;63.99;98241.75;5027428;28;20232;-68
2021/10/23 02:33:24;;;;;;;1.47;1.37;;;;;;;21.00;63.93;98208.44;5026237;28;20237;-68
2021/10/23 02:35:51;;;;;;;1.10;1.10;;;;;;;21.25;63.94;98251.22;5027793;28;20233;-67
2021/10/23 02:38:18;;;;;;;1.40;1.30;;;;;;;21.24;63.89;98252.94;5027733;28;20320;-68
2021/10/23 02:40:44;;;;;;;1.43;1.20;;;;;;;21.24;64.17;98249.47;5027143;28;20229;-66
2021/10/23 02:43:11;;;;;;;1.57;1.47;;;;;;;21.26;63.85;98250.44;5027391;28;20244;-67
2021/10/23 02:45:37;;;;;;;1.37;1.27;;;;;;;21.24;64.02;98245.25;5027520;28;20301;-67
2021/10/23 02:48:04;;;;;;;1.30;1.20;;;;;;;20.91;64.03;98187.59;5027433;28;20651;-68
2021/10/23 02:50:31;;;;;;;1.40;1.30;;;;;;;21.24;63.88;98249.47;5026018;28;20257;-66
2021/10/23 02:52:57;;;;;;;1.40;1.30;;;;;;;21.24;63.71;98250.38;5026506;28;20209;-68
2021/10/23 02:55:24;;;;;;;1.53;1.43;;;;;;;21.02;64.05;98213.63;5025533;28;20232;-67
2021/10/23 02:57:50;;;;;;;1.30;1.20;;;;;;;21.23;63.92;98253.72;5013233;28;20669;-67
2021/10/23 03:00:17;;;;;;;1.30;1.20;;;;;;;20.48;64.08;98129.47;5027546;28;20261;-67
2021/10/23 03:02:45;;;;;;;1.40;1.30;;;;;;;21.21;63.95;98257.03;5026734;28;20555;-67
2021/10/23 03:05:12;;;;;;;1.37;1.27;;;;;;;21.05;64.38;98224.81;5026697;28;20690;-68
2021/10/23 03:07:39;;;;;;;1.40;1.30;;;;;;;21.19;64.08;98256.97;5025509;28;20202;-68
2021/10/23 03:10:05;;;;;;;1.07;1.07;;;;;;;20.99;63.84;98227.13;5026235;28;20263;-67
2021/10/23 03:12:32;;;;;;;1.30;1.20;;;;;;;21.04;64.11;98229.88;5026019;28;20688;-67
2021/10/23 03:14:59;;;;;;;1.47;1.37;;;;;;;21.23;64.09;98275.88;5027256;28;20245;-68
2021/10/23 03:17:25;;;;;;;1.40;1.30;;;;;;;21.24;63.73;98277.59;5026765;28;20264;-67
2021/10/23 03:19:52;;;;;;;1.40;1.30;;;;;;;21.14;63.82;98255.03;5027315;28;20206;-68
2021/10/23 03:22:18;;;;;;;1.10;1.10;;;;;;;21.22;64.38;98272.44;5026425;28;20241;-68
2021/10/23 03:24:45;;;;;;;1.30;1.20;;;;;;;20.42;63.93;98147.09;5026569;28;20237;-68
2021/10/23 03:27:11;;;;;;;1.20;1.10;;;;;;;21.24;64.26;98275.06;5026117;28;20702;-67
2021/10/23 03:29:38;;;;;;;1.60;1.50;;;;;;;21.00;63.72;98243.34;5027407;28;20670;-67
2021/10/23 03:32:05;;;;;;;1.40;1.30;;;;;;;20.36;63.94;98149.38;5026606;28;20308;-67
2021/10/23 03:34:31;;;;;;;1.07;1.00;;;;;;;21.25;64.17;98287.00;5026736;28;20287;-67
2021/10/23 03:36:58;;;;;;;1.20;1.20;;;;;;;21.25;64.12;98281.91;5026316;28;20659;-67
2021/10/23 03:39:24;;;;;;;1.20;1.10;;;;;;;21.23;64.33;98284.38;5026681;28;20349;-66
2021/10/23 03:41:51;;;;;;;0.97;0.97;;;;;;;21.24;64.09;98291.28;5026696;28;20290;-67
2021/10/23 03:44:18;;;;;;;1.43;1.33;;;;;;;21.24;63.93;98287.84;5026480;28;20209;-67
2021/10/23 03:46:44;;;;;;;1.27;1.17;;;;;;;20.24;64.09;98126.75;5026045;28;20244;-68
2021/10/23 03:49:11;;;;;;;1.40;1.30;;;;;;;21.22;63.86;98298.00;5026687;28;20209;-67
2021/10/23 03:51:38;;;;;;;1.37;1.27;;;;;;;21.23;64.10;98293.75;5027275;28;20320;-67
2021/10/23 03:54:04;;;;;;;1.20;1.20;;;;;;;21.20;63.79;98288.53;5026625;28;20292;-68
2021/10/23 03:56:31;;;;;;;1.50;1.40;;;;;;;21.23;64.44;98301.44;5025889;28;20523;-67
2021/10/23 03:58:57;;;;;;;1.53;1.10;;;;;;;21.24;63.77;98305.72;5026420;28;20767;-68
2021/10/23 04:01:24;;;;;;;1.10;1.10;;;;;;;21.23;63.78;98306.53;5026198;28;20264;-67
2021/10/23 04:03:51;;;;;;;1.10;1.10;;;;;;;21.24;64.29;98310.84;5026258;28;20445;-67
2021/10/23 04:06:18;;;;;;;1.30;1.20;;;;;;;21.18;64.02;98305.47;5025678;28;20228;-67
2021/10/23 04:08:45;;;;;;;1.37;1.27;;;;;;;21.25;64.26;98315.13;5024922;28;20705;-67
2021/10/23 04:11:11;;;;;;;1.60;1.10;;;;;;;21.24;64.05;98310.84;5025336;28;20603;-67
2021/10/23 04:13:38;;;;;;;1.40;1.30;;;;;;;20.38;64.31;98170.75;5026430;28;20328;-67
2021/10/23 04:16:04;;;;;;;1.60;1.27;;;;;;;20.77;64.23;98234.66;5026066;28;20233;-67
2021/10/23 04:18:31;;;;;;;1.10;1.10;;;;;;;21.24;64.00;98315.94;5025973;28;20308;-68
2021/10/23 04:20:58;;;;;;;1.70;1.30;;;;;;;21.06;63.86;98289.59;5026901;28;20253;-67
2021/10/23 04:23:25;;;;;;;1.33;1.23;;;;;;;21.15;63.64;98302.78;5028387;28;20240;-67
2021/10/23 04:25:51;;;;;;;1.07;1.07;;;;;;;21.15;63.97;98307.88;5029994;28;20198;-67
2021/10/23 04:28:18;;;;;;;1.10;1.10;;;;;;;21.25;64.08;98322.81;5029240;28;20237;-67
2021/10/23 04:30:44;;;;;;;1.20;1.10;;;;;;;20.38;64.04;98173.31;5029076;28;20498;-67
2021/10/23 04:33:11;;;;;;;1.40;1.30;;;;;;;21.24;63.95;98326.19;5030003;28;20237;-67
2021/10/23 04:35:37;;;;;;;1.30;1.20;;;;;;;21.24;64.02;98323.63;5029850;28;20229;-69
2021/10/23 04:38:04;;;;;;;1.30;1.20;;;;;;;21.23;64.07;98327.84;5028311;28;20312;-67
2021/10/23 04:40:30;;;;;;;1.40;1.30;;;;;;;21.13;63.81;98312.94;5027139;28;20780;-67
2021/10/23 04:42:57;;;;;;;1.20;1.10;;;;;;;21.22;63.86;98327.78;5022011;28;20230;-67
2021/10/23 04:45:24;;;;;;;1.83;1.20;;;;;;;21.23;64.20;98340.63;5020587;28;20461;-67
2021/10/23 04:47:50;;;;;;;1.20;1.10;;;;;;;21.23;64.05;98338.06;5027938;28;20202;-67
2021/10/23 04:50:17;;;;;;;2.47;1.30;;;;;;;20.40;64.32;98210.84;5029087;28;20229;-67
2021/10/23 04:52:43;;;;;;;1.23;1.13;;;;;;;21.20;63.95;98337.94;5029313;28;20564;-64
2021/10/23 04:55:10;;;;;;;1.47;1.37;;;;;;;21.05;63.78;98316.84;5028664;28;20785;-68
2021/10/23 04:57:36;;;;;;;1.40;1.30;;;;;;;21.15;63.71;98328.34;5029192;28;20283;-68
2021/10/23 05:00:04;;;;;;;1.37;1.27;;;;;;;21.09;64.04;98322.97;5024633;28;20237;-67
2021/10/23 05:02:30;;;;;;;1.13;1.13;;;;;;;21.23;63.59;98352.56;5027411;28;20233;-67
2021/10/23 05:04:57;;;;;;;1.53;1.40;;;;;;;21.14;63.99;98342.78;5023148;28;20586;-68
2021/10/23 05:07:24;;;;;;;1.30;1.20;;;;;;;20.31;63.92;98197.66;5015964;28;20631;-67
2021/10/23 05:09:50;;;;;;;1.50;1.40;;;;;;;21.25;63.95;98362.03;5027405;28;20686;-67
2021/10/23 05:12:17;;;;;;;1.20;1.13;;;;;;;21.23;64.18;98355.13;5028175;28;20234;-65
2021/10/23 05:14:43;;;;;;;1.47;1.37;;;;;;;21.25;63.98;98361.16;5028583;28;20202;-67
2021/10/23 05:17:10;;;;;;;1.47;1.37;;;;;;;21.21;63.42;98356.72;5028358;28;20198;-67
2021/10/23 05:19:36;;;;;;;1.40;1.30;;;;;;;21.23;64.29;98362.78;5028889;28;20261;-66
2021/10/23 05:22:03;;;;;;;1.93;1.20;;;;;;;21.22;63.62;98359.34;5022776;28;20260;-66
2021/10/23 05:24:30;;;;;;;1.53;1.40;;;;;;;21.24;64.05;98369.63;5027275;28;20209;-67
2021/10/23 05:26:56;;;;;;;3.57;1.60;;;;;;;21.20;62.60;98358.41;5028700;28;20288;-67
2021/10/23 05:29:23;;;;;;;4.33;1.90;;;;;;;21.17;59.92;98358.25;5029202;28;20205;-67
2021/10/23 05:31:49;;;;;;;6.27;2.60;;;;;;;21.20;57.72;98368.63;5027933;28;20229;-67
2021/10/23 05:34:16;;;;;;;6.07;2.63;;;;;;;21.16;56.19;98365.88;5028998;28;20244;-67
2021/10/23 05:36:42;;;;;;;4.40;2.47;;;;;;;21.18;54.82;98383.03;5028692;28;20236;-68
2021/10/23 05:39:09;;;;;;;4.33;2.47;;;;;;;21.17;54.09;98378.72;5028735;28;20320;-68
2021/10/23 05:41:36;;;;;;;4.10;2.50;;;;;;;21.14;53.30;98382.84;5043666;22;20271;-65
2021/10/23 05:44:03;;;;;;;3.83;2.70;;;;;;;21.08;52.73;98369.78;5045104;28;20248;-65
2021/10/23 05:46:30;;;;;;;6.60;2.70;;;;;;;21.02;52.14;98360.16;5026709;28;20212;-64
2021/10/23 05:48:56;;;;;;;6.27;2.80;;;;;;;21.14;52.67;98383.69;5045669;28;20662;-65
2021/10/23 05:51:24;;;;;;;5.90;2.90;;;;;;;21.13;53.79;98391.28;5047512;28;20255;-65
2021/10/23 05:53:51;;;;;;;5.67;2.80;;;;;;;21.13;54.32;98392.19;5047952;28;20262;-64
2021/10/23 05:56:17;;;;;;;4.23;2.53;;;;;;;21.11;55.11;98391.22;5048203;28;20282;-65
2021/10/23 05:58:44;;;;;;;3.57;2.37;;;;;;;21.13;55.69;98392.19;5047534;28;20256;-65
2021/10/23 06:01:10;;;;;;;3.67;2.30;;;;;;;21.12;56.33;98399.78;5048206;28;20351;-65
2021/10/23 06:03:39;;;;;;;4.63;2.57;;;;;;;21.12;56.53;98398.09;5047903;28;20307;-64
2021/10/23 06:06:07;;;;;;;3.23;2.10;;;;;;;21.13;56.77;98401.50;5048024;28;20203;-65
2021/10/23 06:08:35;;;;;;;4.97;2.60;;;;;;;21.13;56.78;98409.19;5047478;28;20306;-65
2021/10/23 06:11:03;;;;;;;5.17;2.40;;;;;;;21.08;57.00;98406.41;5047661;28;20228;-65
2021/10/23 06:13:31;;;;;;;3.43;2.30;;;;;;;21.12;57.41;98412.56;5047959;28;20316;-64
2021/10/23 06:15:57;;;;;;;4.40;2.33;;;;;;;21.00;57.73;98399.22;5046100;28;20693;-65
2021/10/23 06:18:25;;;;;;;4.33;2.60;;;;;;;21.13;58.03;98421.97;5046071;28;20213;-65
2021/10/23 06:20:51;;;;;;;4.03;2.33;;;;;;;21.13;58.43;98420.28;5047277;28;20239;-65
2021/10/23 06:23:18;;;;;;;3.33;2.10;;;;;;;21.09;58.69;98418.41;5047341;28;20582;-64
2021/10/23 06:25:45;;;;;;;2.87;2.10;;;;;;;21.16;58.50;98434.88;5046554;28;20237;-64
2021/10/23 06:28:11;;;;;;;2.90;2.03;;;;;;;21.05;58.87;98425.88;5047814;28;20632;-64
2021/10/23 06:30:38;;;;;;;3.93;2.30;;;;;;;20.83;59.44;98382.22;5049620;28;20280;-65
2021/10/23 06:33:05;;;;;;;2.83;2.10;;;;;;;21.17;59.40;98442.63;5047271;28;20200;-65
2021/10/23 06:35:31;;;;;;;2.60;2.00;;;;;;;21.16;59.57;98448.56;5044295;28;20307;-65
2021/10/23 06:37:58;;;;;;;4.80;2.50;;;;;;;21.12;59.56;98439.00;5046197;28;20291;-65
2021/10/23 06:40:25;;;;;;;4.10;2.43;;;;;;;21.17;59.67;98450.28;5047301;28;20240;-64
2021/10/23 06:42:51;;;;;;;4.07;2.00;;;;;;;21.18;59.92;98459.72;5044851;28;20274;-65
2021/10/23 06:45:18;;;;;;;3.43;2.07;;;;;;;21.09;60.20;98443.09;5047137;28;20259;-64
2021/10/23 06:47:44;;;;;;;3.23;2.03;;;;;;;21.10;60.01;98460.16;5047516;28;20762;-65
2021/10/23 06:50:12;;;;;;;3.17;2.17;;;;;;;21.13;60.10;98476.53;5047932;28;20228;-65
2021/10/23 06:52:38;;;;;;;2.03;1.77;;;;;;;21.17;59.67;98490.34;5046776;28;20244;-64
2021/10/23 06:55:05;;;;;;;5.17;2.33;;;;;;;21.17;60.06;98492.91;5046212;28;20296;-65
2021/10/23 06:57:32;;;;;;;2.67;1.90;;;;;;;21.17;60.35;98498.88;5045468;28;20241;-64
2021/10/23 06:59:58;;;;;;;2.63;1.90;;;;;;;21.17;60.43;98495.44;5046228;28;20263;-65
2021/10/23 07:02:25;;;;;;;3.57;2.30;;;;;;;21.17;60.42;98506.53;5044517;28;20662;-65
2021/10/23 07:04:53;;;;;;;2.87;1.97;;;;;;;21.14;60.41;98496.16;5046441;28;20243;-64
2021/10/23 07:07:19;;;;;;;3.20;2.17;;;;;;;21.18;59.98;98505.75;5047231;28;20207;-64
2021/10/23 07:09:46;;;;;;;3.87;2.13;;;;;;;21.15;59.99;98505.59;5047372;28;20277;-65
2021/10/23 07:12:12;;;;;;;5.07;2.20;;;;;;;21.18;60.19;98505.75;5047489;28;20240;-64
2021/10/23 07:14:39;;;;;;;3.83;2.10;;;;;;;21.19;60.34;98507.50;5046993;28;20267;-65
2021/10/23 07:17:06;;;;;;;2.47;1.90;;;;;;;21.15;60.54;98505.59;5046982;28;20262;-64
2021/10/23 07:19:32;;;;;;;2.93;2.00;;;;;;;21.17;60.48;98516.75;5047190;28;20626;-64
2021/10/23 07:21:59;;;;;;;2.20;1.77;;;;;;;21.16;60.38;98516.69;5047062;28;20303;-64
2021/10/23 07:24:25;;;;;;;2.50;1.70;;;;;;;21.20;60.75;98511.78;5047099;28;20351;-64
2021/10/23 07:26:52;;;;;;;3.13;1.90;;;;;;;21.21;60.67;98507.56;5046594;28;20247;-64
2021/10/23 07:29:19;;;;;;;2.13;1.63;;;;;;;21.21;60.68;98502.44;5046800;28;20207;-64
2021/10/23 07:31:46;;;;;;;3.30;1.90;;;;;;;21.21;60.89;98498.22;5046843;28;20256;-64
2021/10/23 07:34:12;;;;;;;3.70;1.80;;;;;;;21.20;60.82;98487.91;5046822;28;20205;-65
2021/10/23 07:36:39;;;;;;;2.20;1.80;;;;;;;21.20;60.85;98496.44;5046616;28;20293;-64
2021/10/23 07:39:05;;;;;;;2.57;1.90;;;;;;;21.19;61.04;98486.16;5046016;28;20658;-64
2021/10/23 07:41:32;;;;;;;2.47;1.63;;;;;;;21.18;60.53;98490.41;5046175;28;20268;-64
2021/10/23 07:43:59;;;;;;;2.60;1.80;;;;;;;21.19;61.15;98491.25;5046376;28;20240;-65
2021/10/23 07:46:26;;;;;;;5.03;2.10;;;;;;;21.18;61.03;98490.41;5045972;28;20236;-64
2021/10/23 07:48:52;;;;;;;2.73;1.90;;;;;;;21.18;60.77;98487.84;5046478;28;20201;-64
2021/10/23 07:51:19;;;;;;;1.87;1.70;;;;;;;21.20;61.32;98481.09;5046469;28;20660;-65
2021/10/23 07:53:47;;;;;;;2.03;1.83;;;;;;;21.17;61.16;98480.97;5046581;28;20244;-64
2021/10/23 07:56:13;;;;;;;2.13;1.83;;;;;;;21.21;61.04;98479.44;5025846;28;20212;-64
2021/10/23 07:58:40;;;;;;;2.10;1.80;;;;;;;21.22;61.26;98483.72;5046520;28;20239;-64
2021/10/23 08:01:11;;;;;;;2.37;1.70;;;;;;;21.21;61.00;98488.00;5040941;28;20248;-64
2021/10/23 08:03:38;;;;;;;2.30;1.80;;;;;;;21.21;61.27;98495.66;5046710;28;20209;-64
2021/10/23 08:06:05;;;;;;;2.53;2.00;;;;;;;21.22;60.95;98512.75;5046135;28;20236;-64
2021/10/23 08:08:31;;;;;;;2.97;2.00;;;;;;;21.22;61.34;98506.75;5046677;28;20639;-65
2021/10/23 08:10:59;;;;;;;2.83;1.93;;;;;;;21.22;61.42;98501.63;5046397;28;20468;-64
2021/10/23 08:13:27;;;;;;;2.43;1.80;;;;;;;21.22;61.30;98510.19;5046302;28;20258;-64
2021/10/23 08:15:53;;;;;;;2.93;1.80;;;;;;;21.19;61.25;98498.94;5046201;28;20298;-64
2021/10/23 08:18:20;;;;;;;2.10;1.70;;;;;;;21.19;61.60;98504.94;5046545;28;20229;-64
2021/10/23 08:20:47;;;;;;;1.83;1.70;;;;;;;21.22;61.34;98509.28;5046023;28;20319;-64
2021/10/23 08:23:13;;;;;;;3.43;1.83;;;;;;;21.22;61.32;98514.41;5046737;28;20296;-63
2021/10/23 08:25:40;;;;;;;1.77;1.60;;;;;;;21.22;61.46;98516.97;5046856;28;20221;-64
2021/10/23 08:28:06;;;;;;;2.47;1.80;;;;;;;21.18;61.00;98515.09;5044836;28;20201;-64
2021/10/23 08:30:33;;;;;;;2.57;1.70;;;;;;;21.14;61.31;98513.22;5045266;28;20228;-64
2021/10/23 08:33:00;;;;;;;3.10;2.13;;;;;;;21.20;61.36;98516.91;5046357;28;20287;-63
2021/10/23 08:35:27;;;;;;;2.03;1.73;;;;;;;21.22;61.30;98515.31;5046183;28;20209;-64
2021/10/23 08:37:54;;;;;;;1.93;1.60;;;;;;;21.20;61.27;98514.34;5044852;28;20288;-65
2021/10/23 08:40:21;;;;;;;2.07;1.73;;;;;;;21.21;61.34;98523.78;5044958;28;20217;-64
2021/10/23 08:42:48;;;;;;;2.13;1.80;;;;;;;21.22;61.47;98524.63;5045251;28;20732;-64
2021/10/23 08:45:15;;;;;;;3.47;1.80;;;;;;;21.23;61.24;98526.41;5046350;28;20204;-64
2021/10/23 08:47:45;;;;;;;1.90;1.70;;;;;;;21.23;61.50;98524.72;5045291;28;20674;-65
2021/10/23 08:50:13;;;;;;;2.77;1.70;;;;;;;21.23;61.47;98527.25;5044895;28;20685;-64
2021/10/23 08:52:41;;;;;;;1.77;1.57;;;;;;;21.16;61.48;98511.56;5046312;28;20695;-65
2021/10/23 08:55:07;;;;;;;1.50;1.40;;;;;;;21.23;61.56;98522.16;5021745;28;20255;-64
2021/10/23 08:57:34;;;;;;;1.70;1.50;;;;;;;21.24;61.30;98528.16;5045879;28;20201;-64
2021/10/23 09:00:01;;;;;;;3.30;1.60;;;;;;;21.24;61.49;98533.25;5043626;28;20244;-64
2021/10/23 09:02:27;;;;;;;1.90;1.70;;;;;;;21.24;61.36;98528.16;5045364;28;20225;-65
2021/10/23 09:04:56;;;;;;;2.83;1.80;;;;;;;21.15;61.75;98518.38;5043561;28;20748;-64
2021/10/23 09:07:23;;;;;;;2.63;1.73;;;;;;;21.24;61.62;98533.25;5029116;28;20848;-64
2021/10/23 09:09:56;;;;;;;2.20;1.57;;;;;;;21.23;61.50;98539.19;5049144;28;20323;-65
2021/10/23 09:12:23;;;;;;;1.93;1.60;;;;;;;21.23;61.57;98534.94;5048529;28;20229;-64
2021/10/23 09:15:04;;;;;;;1.63;1.50;;;;;;;21.22;61.46;98543.44;5048933;28;20288;-64
2021/10/23 09:17:31;;;;;;;1.93;1.53;;;;;;;21.13;61.52;98530.22;5035750;28;20232;-64
2021/10/23 09:20:04;;;;;;;2.77;1.80;;;;;;;21.21;61.48;98551.91;5049022;28;20216;-65
2021/10/23 09:22:35;;;;;;;2.20;1.87;;;;;;;21.22;61.69;98545.09;5047945;28;20252;-65
2021/10/23 09:25:15;;;;;;;2.77;1.53;;;;;;;21.22;61.73;98545.97;5049189;28;20259;-64
2021/10/23 09:27:52;;;;;;;3.57;2.00;;;;;;;21.22;61.55;98530.63;5049827;28;20282;-64
2021/10/23 09:30:22;;;;;;;3.40;1.93;;;;;;;21.20;61.62;98528.81;5032010;28;20197;-64
2021/10/23 09:32:53;;;;;;;1.70;1.60;;;;;;;21.24;61.80;98546.03;5047843;28;20279;-65
2021/10/23 09:35:22;;;;;;;2.10;1.67;;;;;;;21.23;61.50;98540.06;5048720;28;20239;-64
2021/10/23 09:37:50;;;;;;;2.30;1.73;;;;;;;21.24;61.78;98539.28;5049236;28;20201;-64
2021/10/23 09:40:18;;;;;;;2.27;1.90;;;;;;;21.24;61.74;98538.38;5048630;28;20221;-64
2021/10/23 09:42:45;;;;;;;2.60;1.93;;;;;;;21.25;61.81;98542.69;5048045;28;20320;-64
2021/10/23 09:45:11;;;;;;;1.63;1.53;;;;;;;21.25;61.74;98547.78;5048581;28;20208;-64
2021/10/23 09:47:38;;;;;;;2.30;1.60;;;;;;;21.25;61.71;98560.56;5047401;28;20228;-65
2021/10/23 09:50:12;;;;;;;2.00;1.80;;;;;;;21.22;61.76;98551.09;5048770;28;20243;-65
2021/10/23 09:52:58;;;;;;;1.80;1.70;;;;;;;21.20;61.71;98546.72;5048590;28;20233;-64
2021/10/23 09:55:26;;;;;;;1.97;1.70;;;;;;;21.24;61.57;98559.72;5047150;28;20639;-65
2021/10/23 09:58:12;;;;;;;2.13;1.50;;;;;;;21.24;61.87;98571.63;5030198;28;20200;-65
2021/10/23 10:00:44;;;;;;;2.00;1.70;;;;;;;20.99;61.70;98523.56;5047186;28;20650;-64
2021/10/23 10:03:11;;;;;;;1.93;1.70;;;;;;;21.23;61.51;98564.75;5036844;28;20205;-64
2021/10/23 10:05:38;;;;;;;1.63;1.53;;;;;;;21.22;61.85;98556.19;5047247;28;20200;-65
2021/10/23 10:08:09;;;;;;;2.30;1.50;;;;;;;21.23;61.68;98551.97;5046760;28;20229;-65
2021/10/23 10:10:42;;;;;;;1.63;1.50;;;;;;;21.23;61.76;98552.84;5048504;28;20586;-65
2021/10/23 10:13:12;;;;;;;1.93;1.60;;;;;;;21.21;61.59;98556.13;5043206;28;20644;-65
2021/10/23 10:15:40;;;;;;;2.87;1.70;;;;;;;21.24;62.02;98553.72;5047890;28;20270;-65
2021/10/23 10:18:07;;;;;;;1.80;1.57;;;;;;;21.25;61.92;98550.34;5040470;28;20304;-64
2021/10/23 10:20:35;;;;;;;2.43;1.80;;;;;;;21.25;61.87;98553.78;5045834;28;20240;-65
2021/10/23 10:23:06;;;;;;;1.90;1.70;;;;;;;21.24;61.83;98541.81;5046653;28;20240;-64
2021/10/23 10:25:33;;;;;;;1.60;1.50;;;;;;;21.24;61.93;98546.94;5046556;28;20632;-64
2021/10/23 10:28:10;;;;;;;1.70;1.60;;;;;;;21.25;61.88;98558.91;5047832;28;20240;-64
2021/10/23 10:30:37;;;;;;;1.60;1.50;;;;;;;21.24;61.83;98554.59;5046703;28;20220;-64
2021/10/23 10:33:32;;;;;;;1.80;1.70;;;;;;;21.25;61.99;98541.00;5048002;28;20271;-65
2021/10/23 10:38:57;;;;;;;1.43;1.33;;;;;;;21.26;62.06;98536.78;5047560;28;20739;-64
2021/10/23 10:44:18;;;;;;;2.53;1.67;;;;;;;21.21;62.03;98523.78;5047769;28;20205;-65
2021/10/23 10:47:05;;;;;;;1.70;1.40;;;;;;;21.25;62.02;98538.44;5046259;28;20293;-65
2021/10/23 10:49:41;;;;;;;1.93;1.70;;;;;;;21.24;61.69;98536.72;5042942;28;20626;-64
2021/10/23 10:52:39;;;;;;;1.67;1.57;;;;;;;21.25;61.80;98537.56;5045444;28;20252;-65
2021/10/23 10:55:13;;;;;;;1.97;1.40;;;;;;;21.17;61.81;98524.44;5046106;28;20756;-63
2021/10/23 10:57:55;;;;;;;2.27;1.73;;;;;;;21.26;61.75;98540.19;5046003;28;20239;-65
2021/10/23 11:00:22;;;;;;;1.60;1.50;;;;;;;21.26;61.98;98544.44;5042949;28;20244;-65
2021/10/23 11:02:49;;;;;;;1.47;1.37;;;;;;;21.27;61.64;98541.06;5047792;28;20781;-65
2021/10/23 11:05:17;;;;;;;2.40;1.60;;;;;;;21.25;61.93;98528.22;5041537;28;20209;-64
2021/10/23 11:08:17;;;;;;;1.97;1.50;;;;;;;21.25;61.76;98523.09;5046094;28;20211;-64
2021/10/23 11:10:52;;;;;;;1.60;1.50;;;;;;;21.26;61.88;98531.66;5014359;28;20286;-64
2021/10/23 11:13:25;;;;;;;1.67;1.57;;;;;;;21.26;61.82;98531.66;5047313;28;20240;-64
2021/10/23 11:15:52;;;;;;;3.63;1.40;;;;;;;21.26;62.14;98531.66;5047017;28;20315;-64
2021/10/23 11:18:19;;;;;;;1.70;1.60;;;;;;;21.20;62.04;98518.59;5047213;28;20209;-65
2021/10/23 11:20:46;;;;;;;1.50;1.40;;;;;;;21.26;62.07;98529.97;5046672;28;20362;-65
2021/10/23 11:23:22;;;;;;;2.20;1.70;;;;;;;21.27;61.98;98538.53;5047125;28;20201;-64
2021/10/23 11:25:50;;;;;;;2.33;1.80;;;;;;;21.26;62.22;98535.06;5029309;28;20519;-64
2021/10/23 11:28:17;;;;;;;1.97;1.50;;;;;;;21.22;62.06;98528.09;5047319;28;20212;-65
2021/10/23 11:30:43;;;;;;;1.50;1.40;;;;;;;21.21;61.98;98522.91;5046370;28;20280;-64
2021/10/23 11:33:13;;;;;;;1.50;1.40;;;;;;;21.25;61.95;98535.00;5045897;28;20207;-65
2021/10/23 11:35:49;;;;;;;1.60;1.50;;;;;;;21.24;62.04;98533.25;5046493;28;20677;-65
2021/10/23 11:38:22;;;;;;;3.07;1.50;;;;;;;21.24;61.87;98534.16;5041875;28;20196;-64
2021/10/23 11:40:59;;;;;;;2.43;1.80;;;;;;;21.19;61.94;98525.38;5045873;28;20310;-64
2021/10/23 11:43:28;;;;;;;2.80;1.90;;;;;;;21.24;62.07;98538.38;5067646;22;20264;-61